sensor_id;sensor_type;location;lat;lon;timestamp;pressure;altitude;pressure_sealevel;temperature;humidity
50125;BME280;36023;48.670;6.184;2023-03-13T00:03:45;98419.78;;;16.50;43.69
50125;BME280;36023;48.670;6.184;2023-03-13T00:06:11;98425.91;;;16.49;43.70
50125;BME280;36023;48.670;6.184;2023-03-13T00:08:36;98415.47;;;16.49;43.80
50125;BME280;36023;48.670;6.184;2023-03-13T00:11:04;98415.47;;;16.49;43.76
50125;BME280;36023;48.670;6.184;2023-03-13T00:13:30;98413.69;;;16.50;43.90
50125;BME280;36023;48.670;6.184;2023-03-13T00:16:01;98424.13;;;16.50;43.93
50125;BME280;36023;48.670;6.184;2023-03-13T00:18:28;98420.69;;;16.49;43.98
50125;BME280;36023;48.670;6.184;2023-03-13T00:21:01;98407.63;;;16.49;44.05
50125;BME280;36023;48.670;6.184;2023-03-13T00:23:27;98406.72;;;16.50;44.16
50125;BME280;36023;48.670;6.184;2023-03-13T00:26:02;98400.63;;;16.50;44.13
50125;BME280;36023;48.670;6.184;2023-03-13T00:28:30;98403.22;;;16.50;44.13
50125;BME280;36023;48.670;6.184;2023-03-13T00:31:03;98402.38;;;16.49;44.23
50125;BME280;36023;48.670;6.184;2023-03-13T00:33:31;98398.00;;;16.50;44.35
50125;BME280;36023;48.670;6.184;2023-03-13T00:35:58;98404.09;;;16.50;44.34
50125;BME280;36023;48.670;6.184;2023-03-13T00:38:24;98404.09;;;16.50;44.25
50125;BME280;36023;48.670;6.184;2023-03-13T00:41:03;98402.31;;;16.51;44.31
50125;BME280;36023;48.670;6.184;2023-03-13T00:43:29;98396.25;;;16.50;44.22
50125;BME280;36023;48.670;6.184;2023-03-13T00:45:55;98397.09;;;16.51;44.30
50125;BME280;36023;48.670;6.184;2023-03-13T00:48:21;98378.81;;;16.51;44.50
50125;BME280;36023;48.670;6.184;2023-03-13T00:50:46;98370.13;;;16.50;44.51
50125;BME280;36023;48.670;6.184;2023-03-13T00:53:13;98361.34;;;16.51;44.49
50125;BME280;36023;48.670;6.184;2023-03-13T00:56:11;98359.66;;;16.50;44.55
50125;BME280;36023;48.670;6.184;2023-03-13T00:58:38;98366.56;;;16.51;44.59
50125;BME280;36023;48.670;6.184;2023-03-13T01:03:34;98363.97;;;16.51;44.62
50125;BME280;36023;48.670;6.184;2023-03-13T01:06:04;98360.50;;;16.51;44.69
50125;BME280;36023;48.670;6.184;2023-03-13T01:08:30;98359.47;;;16.53;44.79
50125;BME280;36023;48.670;6.184;2023-03-13T01:10:59;98355.19;;;16.52;44.70
50125;BME280;36023;48.670;6.184;2023-03-13T01:13:27;98346.50;;;16.52;44.84
50125;BME280;36023;48.670;6.184;2023-03-13T01:15:54;98344.72;;;16.52;44.51
50125;BME280;36023;48.670;6.184;2023-03-13T01:18:20;98341.28;;;16.52;45.01
50125;BME280;36023;48.670;6.184;2023-03-13T01:20:46;98329.06;;;16.52;44.86
50125;BME280;36023;48.670;6.184;2023-03-13T01:23:13;98334.28;;;16.52;45.11
50125;BME280;36023;48.670;6.184;2023-03-13T01:25:40;98338.66;;;16.52;44.90
50125;BME280;36023;48.670;6.184;2023-03-13T01:28:05;98336.88;;;16.52;45.19
50125;BME280;36023;48.670;6.184;2023-03-13T01:30:31;98341.28;;;16.52;45.15
50125;BME280;36023;48.670;6.184;2023-03-13T01:32:57;98332.59;;;16.51;45.06
50125;BME280;36023;48.670;6.184;2023-03-13T01:35:23;98335.22;;;16.51;45.23
50125;BME280;36023;48.670;6.184;2023-03-13T01:37:48;98324.75;;;16.51;45.00
50125;BME280;36023;48.670;6.184;2023-03-13T01:40:14;98318.69;;;16.51;45.32
50125;BME280;36023;48.670;6.184;2023-03-13T01:48:21;98313.47;;;16.51;45.49
50125;BME280;36023;48.670;6.184;2023-03-13T01:50:49;98301.22;;;16.51;45.32
50125;BME280;36023;48.670;6.184;2023-03-13T01:53:25;98301.22;;;16.51;45.63
50125;BME280;36023;48.670;6.184;2023-03-13T01:55:56;98294.31;;;16.50;45.51
50125;BME280;36023;48.670;6.184;2023-03-13T01:58:24;98289.09;;;16.50;45.53
50125;BME280;36023;48.670;6.184;2023-03-13T02:00:51;98294.31;;;16.50;45.57
50125;BME280;36023;48.670;6.184;2023-03-13T02:03:18;98287.31;;;16.51;45.48
50125;BME280;36023;48.670;6.184;2023-03-13T02:05:47;98289.00;;;16.52;45.66
50125;BME280;36023;48.670;6.184;2023-03-13T02:08:20;98289.94;;;16.51;45.77
50125;BME280;36023;48.670;6.184;2023-03-13T02:10:58;98294.31;;;16.50;45.71
50125;BME280;36023;48.670;6.184;2023-03-13T02:13:28;98293.38;;;16.51;45.77
50125;BME280;36023;48.670;6.184;2023-03-13T02:15:54;98293.44;;;16.50;45.79
50125;BME280;36023;48.670;6.184;2023-03-13T02:18:20;98285.59;;;16.50;45.29
50125;BME280;36023;48.670;6.184;2023-03-13T02:20:47;98288.22;;;16.50;45.86
50125;BME280;36023;48.670;6.184;2023-03-13T02:23:21;98289.09;;;16.50;46.13
50125;BME280;36023;48.670;6.184;2023-03-13T02:25:51;98285.59;;;16.50;46.10
50125;BME280;36023;48.670;6.184;2023-03-13T02:28:33;98285.59;;;16.50;46.03
50125;BME280;36023;48.670;6.184;2023-03-13T02:31:02;98281.25;;;16.50;46.09
50125;BME280;36023;48.670;6.184;2023-03-13T02:33:31;98268.19;;;16.50;46.34
50125;BME280;36023;48.670;6.184;2023-03-13T02:36:00;98252.50;;;16.50;46.14
50125;BME280;36023;48.670;6.184;2023-03-13T02:38:30;98256.81;;;16.51;46.44
50125;BME280;36023;48.670;6.184;2023-03-13T02:40:58;98242.06;;;16.50;46.41
50125;BME280;36023;48.670;6.184;2023-03-13T02:46:10;98235.88;;;16.51;46.59
50125;BME280;36023;48.670;6.184;2023-03-13T02:48:50;98228.03;;;16.51;46.47
50125;BME280;36023;48.670;6.184;2023-03-13T02:53:56;98229.81;;;16.51;46.59
50125;BME280;36023;48.670;6.184;2023-03-13T02:56:25;98222.81;;;16.51;46.60
50125;BME280;36023;48.670;6.184;2023-03-13T02:58:52;98233.28;;;16.51;47.07
50125;BME280;36023;48.670;6.184;2023-03-13T03:01:21;98228.88;;;16.52;46.88
50125;BME280;36023;48.670;6.184;2023-03-13T03:03:47;98228.97;;;16.50;46.61
50125;BME280;36023;48.670;6.184;2023-03-13T03:06:13;98221.13;;;16.50;46.89
50125;BME280;36023;48.670;6.184;2023-03-13T03:08:42;98224.59;;;16.51;47.01
50125;BME280;36023;48.670;6.184;2023-03-13T03:11:10;98222.81;;;16.51;47.14
50125;BME280;36023;48.670;6.184;2023-03-13T03:13:36;98223.75;;;16.50;47.14
50125;BME280;36023;48.670;6.184;2023-03-13T03:16:07;98225.44;;;16.51;46.96
50125;BME280;36023;48.670;6.184;2023-03-13T03:18:34;98219.38;;;16.51;47.08
50125;BME280;36023;48.670;6.184;2023-03-13T03:21:03;98230.72;;;16.50;47.19
50125;BME280;36023;48.670;6.184;2023-03-13T03:23:32;98228.03;;;16.51;47.12
50125;BME280;36023;48.670;6.184;2023-03-13T03:25:59;98236.72;;;16.52;47.30
50125;BME280;36023;48.670;6.184;2023-03-13T03:28:25;98223.75;;;16.50;47.08
50125;BME280;36023;48.670;6.184;2023-03-13T03:30:50;98220.22;;;16.51;47.22
50125;BME280;36023;48.670;6.184;2023-03-13T03:33:20;98218.44;;;16.52;47.21
50125;BME280;36023;48.670;6.184;2023-03-13T03:35:46;98198.47;;;16.51;47.24
50125;BME280;36023;48.670;6.184;2023-03-13T03:38:15;98205.47;;;16.50;47.18
50125;BME280;36023;48.670;6.184;2023-03-13T03:40:42;98202.84;;;16.50;47.30
50125;BME280;36023;48.670;6.184;2023-03-13T03:43:08;98217.66;;;16.50;47.43
50125;BME280;36023;48.670;6.184;2023-03-13T03:45:34;98220.22;;;16.51;47.56
50125;BME280;36023;48.670;6.184;2023-03-13T03:48:00;98212.44;;;16.50;47.58
50125;BME280;36023;48.670;6.184;2023-03-13T03:50:26;98216.75;;;16.51;47.45
50125;BME280;36023;48.670;6.184;2023-03-13T03:52:57;98220.28;;;16.50;47.74
50125;BME280;36023;48.670;6.184;2023-03-13T03:55:25;98214.19;;;16.49;47.48
50125;BME280;36023;48.670;6.184;2023-03-13T03:57:51;98222.88;;;16.50;47.30
50125;BME280;36023;48.670;6.184;2023-03-13T04:00:29;98229.03;;;16.49;47.70
50125;BME280;36023;48.670;6.184;2023-03-13T04:02:57;98242.94;;;16.49;47.54
50125;BME280;36023;48.670;6.184;2023-03-13T04:05:23;98237.72;;;16.49;47.75
50125;BME280;36023;48.670;6.184;2023-03-13T04:07:55;98248.19;;;16.49;47.53
50125;BME280;36023;48.670;6.184;2023-03-13T04:10:22;98237.72;;;16.49;47.87
50125;BME280;36023;48.670;6.184;2023-03-13T04:12:48;98245.56;;;16.49;47.62
50125;BME280;36023;48.670;6.184;2023-03-13T04:15:14;98232.50;;;16.49;47.54
50125;BME280;36023;48.670;6.184;2023-03-13T04:17:40;98226.44;;;16.49;47.61
50125;BME280;36023;48.670;6.184;2023-03-13T04:20:08;98226.38;;;16.50;47.77
50125;BME280;36023;48.670;6.184;2023-03-13T04:22:35;98222.03;;;16.49;47.62
50125;BME280;36023;48.670;6.184;2023-03-13T04:25:01;98216.91;;;16.48;47.83
50125;BME280;36023;48.670;6.184;2023-03-13T04:27:29;98217.75;;;16.48;47.74
50125;BME280;36023;48.670;6.184;2023-03-13T04:29:55;98213.47;;;16.47;47.88
50125;BME280;36023;48.670;6.184;2023-03-13T04:32:42;98216.91;;;16.48;47.89
50125;BME280;36023;48.670;6.184;2023-03-13T04:35:22;98222.13;;;16.48;47.91
50125;BME280;36023;48.670;6.184;2023-03-13T04:38:20;98222.97;;;16.48;47.89
50125;BME280;36023;48.670;6.184;2023-03-13T04:41:05;98230.81;;;16.48;47.94
50125;BME280;36023;48.670;6.184;2023-03-13T04:43:51;98222.97;;;16.48;48.14
50125;BME280;36023;48.670;6.184;2023-03-13T04:46:35;98225.59;;;16.48;48.17
50125;BME280;36023;48.670;6.184;2023-03-13T04:49:20;98225.59;;;16.48;48.16
50125;BME280;36023;48.670;6.184;2023-03-13T04:51:54;98230.81;;;16.48;48.30
50125;BME280;36023;48.670;6.184;2023-03-13T04:54:51;98228.19;;;16.48;48.26
50125;BME280;36023;48.670;6.184;2023-03-13T04:57:40;98231.66;;;16.49;48.56
50125;BME280;36023;48.670;6.184;2023-03-13T05:00:26;98221.19;;;16.49;48.33
50125;BME280;36023;48.670;6.184;2023-03-13T05:03:22;98227.28;;;16.49;48.56
50125;BME280;36023;48.670;6.184;2023-03-13T05:06:12;98221.19;;;16.49;48.56
50125;BME280;36023;48.670;6.184;2023-03-13T05:08:56;98221.13;;;16.50;48.67
50125;BME280;36023;48.670;6.184;2023-03-13T05:11:40;98215.97;;;16.49;48.42
50125;BME280;36023;48.670;6.184;2023-03-13T05:14:17;98219.38;;;16.51;48.33
50125;BME280;36023;48.670;6.184;2023-03-13T05:17:02;98219.09;;;16.55;48.53
50125;BME280;36023;48.670;6.184;2023-03-13T05:19:47;98222.19;;;16.62;48.51
50125;BME280;36023;48.670;6.184;2023-03-13T05:22:33;98220.16;;;16.67;48.48
50125;BME280;36023;48.670;6.184;2023-03-13T05:25:13;98225.97;;;16.72;48.41
50125;BME280;36023;48.670;6.184;2023-03-13T05:27:58;98199.56;;;16.77;48.54
50125;BME280;36023;48.670;6.184;2023-03-13T05:30:50;98204.44;;;16.83;48.55
50125;BME280;36023;48.670;6.184;2023-03-13T05:33:34;98191.25;;;16.84;48.27
50125;BME280;36023;48.670;6.184;2023-03-13T05:36:21;98176.22;;;16.88;48.33
50125;BME280;36023;48.670;6.184;2023-03-13T05:39:20;98178.66;;;16.91;48.33
50125;BME280;36023;48.670;6.184;2023-03-13T05:41:45;98169.88;;;16.92;48.28
50125;BME280;36023;48.670;6.184;2023-03-13T05:44:28;98165.41;;;16.94;48.26
50125;BME280;36023;48.670;6.184;2023-03-13T05:47:29;98172.13;;;16.98;48.45
50125;BME280;36023;48.670;6.184;2023-03-13T05:50:21;98159.81;;;17.00;48.27
50125;BME280;36023;48.670;6.184;2023-03-13T05:53:01;98152.69;;;17.02;48.37
50125;BME280;36023;48.670;6.184;2023-03-13T05:55:50;98163.81;;;17.06;48.10
50125;BME280;36023;48.670;6.184;2023-03-13T05:58:55;98163.63;;;17.09;48.04
50125;BME280;36023;48.670;6.184;2023-03-13T06:01:49;98166.97;;;17.11;48.34
50125;BME280;36023;48.670;6.184;2023-03-13T06:04:25;98163.34;;;17.13;48.18
50125;BME280;36023;48.670;6.184;2023-03-13T06:06:52;98170.06;;;17.17;48.43
50125;BME280;36023;48.670;6.184;2023-03-13T06:09:19;98162.97;;;17.19;48.60
50125;BME280;36023;48.670;6.184;2023-03-13T06:11:45;98162.78;;;17.22;48.72
50125;BME280;36023;48.670;6.184;2023-03-13T06:14:12;98157.34;;;17.25;48.89
50125;BME280;36023;48.670;6.184;2023-03-13T06:16:46;98165.09;;;17.27;48.89
50125;BME280;36023;48.670;6.184;2023-03-13T06:19:18;98146.78;;;17.27;48.79
50125;BME280;36023;48.670;6.184;2023-03-13T06:21:43;98170.28;;;17.29;48.82
50125;BME280;36023;48.670;6.184;2023-03-13T06:24:09;98169.34;;;17.30;48.81
50125;BME280;36023;48.670;6.184;2023-03-13T06:26:35;98158.88;;;17.30;48.91
50125;BME280;36023;48.670;6.184;2023-03-13T06:29:01;98144.09;;;17.29;48.88
50125;BME280;36023;48.670;6.184;2023-03-13T06:31:26;98158.03;;;17.29;48.91
50125;BME280;36023;48.670;6.184;2023-03-13T06:33:55;98175.50;;;17.29;48.99
50125;BME280;36023;48.670;6.184;2023-03-13T06:36:22;98180.75;;;17.29;48.94
50125;BME280;36023;48.670;6.184;2023-03-13T06:38:48;98174.72;;;17.26;48.86
50125;BME280;36023;48.670;6.184;2023-03-13T06:41:14;98168.66;;;17.26;49.25
50125;BME280;36023;48.670;6.184;2023-03-13T06:43:40;98160.91;;;17.24;48.94
50125;BME280;36023;48.670;6.184;2023-03-13T06:46:07;98161.84;;;17.23;48.98
50125;BME280;36023;48.670;6.184;2023-03-13T06:48:35;98170.63;;;17.22;49.07
50125;BME280;36023;48.670;6.184;2023-03-13T06:51:00;98185.50;;;17.22;48.73
50125;BME280;36023;48.670;6.184;2023-03-13T06:53:26;98188.22;;;17.20;49.08
50125;BME280;36023;48.670;6.184;2023-03-13T06:55:52;98185.66;;;17.19;49.12
50125;BME280;36023;48.670;6.184;2023-03-13T06:58:18;98191.84;;;17.18;49.02
50125;BME280;36023;48.670;6.184;2023-03-13T07:00:43;98188.38;;;17.17;49.03
50125;BME280;36023;48.670;6.184;2023-03-13T07:03:10;98184.09;;;17.16;49.16
50125;BME280;36023;48.670;6.184;2023-03-13T07:05:36;98195.50;;;17.15;49.03
50125;BME280;36023;48.670;6.184;2023-03-13T07:08:02;98191.19;;;17.14;49.03
50125;BME280;36023;48.670;6.184;2023-03-13T07:10:30;98195.69;;;17.12;49.16
50125;BME280;36023;48.670;6.184;2023-03-13T07:12:56;98188.75;;;17.11;49.31
50125;BME280;36023;48.670;6.184;2023-03-13T07:15:23;98176.59;;;17.10;49.21
50125;BME280;36023;48.670;6.184;2023-03-13T07:17:48;98169.78;;;17.08;49.30
50125;BME280;36023;48.670;6.184;2023-03-13T07:20:14;98155.88;;;17.07;49.26
50125;BME280;36023;48.670;6.184;2023-03-13T07:22:40;98157.75;;;17.05;49.24
50125;BME280;36023;48.670;6.184;2023-03-13T07:25:06;98156.91;;;17.05;49.28
50125;BME280;36023;48.670;6.184;2023-03-13T07:27:32;98160.53;;;17.02;49.24
50125;BME280;36023;48.670;6.184;2023-03-13T07:29:58;98158.88;;;17.01;49.30
50125;BME280;36023;48.670;6.184;2023-03-13T07:32:23;98147.66;;;16.99;49.36
50125;BME280;36023;48.670;6.184;2023-03-13T07:34:49;98141.59;;;16.98;49.39
50125;BME280;36023;48.670;6.184;2023-03-13T07:37:15;98126.91;;;16.96;49.21
50125;BME280;36023;48.670;6.184;2023-03-13T07:39:42;98135.69;;;16.95;49.37
50125;BME280;36023;48.670;6.184;2023-03-13T07:42:11;98133.16;;;16.93;49.59
50125;BME280;36023;48.670;6.184;2023-03-13T07:44:41;98127.09;;;16.93;49.50
50125;BME280;36023;48.670;6.184;2023-03-13T07:47:08;98127.19;;;16.91;49.55
50125;BME280;36023;48.670;6.184;2023-03-13T07:49:34;98129.91;;;16.90;49.57
50125;BME280;36023;48.670;6.184;2023-03-13T07:52:05;98125.63;;;16.89;49.63
50125;BME280;36023;48.670;6.184;2023-03-13T07:54:32;98127.38;;;16.88;49.84
50125;BME280;36023;48.670;6.184;2023-03-13T07:56:58;98121.41;;;16.86;49.79
50125;BME280;36023;48.670;6.184;2023-03-13T07:59:26;98120.66;;;16.84;49.74
50125;BME280;36023;48.670;6.184;2023-03-13T08:01:52;98122.44;;;16.84;49.79
50125;BME280;36023;48.670;6.184;2023-03-13T08:04:18;98121.59;;;16.83;49.62
50125;BME280;36023;48.670;6.184;2023-03-13T08:06:44;98113.84;;;16.82;49.84
50125;BME280;36023;48.670;6.184;2023-03-13T08:09:11;98114.75;;;16.81;49.86
50125;BME280;36023;48.670;6.184;2023-03-13T08:11:38;98114.84;;;16.79;50.01
50125;BME280;36023;48.670;6.184;2023-03-13T08:14:09;98108.78;;;16.79;49.92
50125;BME280;36023;48.670;6.184;2023-03-13T08:16:35;98110.56;;;16.78;49.84
50125;BME280;36023;48.670;6.184;2023-03-13T08:19:02;98109.72;;;16.78;49.94
50125;BME280;36023;48.670;6.184;2023-03-13T08:21:35;98101.03;;;16.77;50.04
50125;BME280;36023;48.670;6.184;2023-03-13T08:24:03;98089.00;;;16.75;50.03
50125;BME280;36023;48.670;6.184;2023-03-13T08:26:32;98097.69;;;16.75;50.09
50125;BME280;36023;48.670;6.184;2023-03-13T08:29:00;98098.63;;;16.74;50.19
50125;BME280;36023;48.670;6.184;2023-03-13T08:31:29;98105.63;;;16.74;50.12
50125;BME280;36023;48.670;6.184;2023-03-13T08:33:55;98099.56;;;16.73;50.19
50125;BME280;36023;48.670;6.184;2023-03-13T08:36:25;98096.19;;;16.71;50.00
50125;BME280;36023;48.670;6.184;2023-03-13T08:38:53;98094.41;;;16.71;50.14
50125;BME280;36023;48.670;6.184;2023-03-13T08:41:24;98091.78;;;16.71;50.13
50125;BME280;36023;48.670;6.184;2023-03-13T08:43:51;98087.50;;;16.70;50.29
50125;BME280;36023;48.670;6.184;2023-03-13T08:46:17;98087.50;;;16.70;50.19
50125;BME280;36023;48.670;6.184;2023-03-13T08:48:43;98084.03;;;16.70;50.27
50125;BME280;36023;48.670;6.184;2023-03-13T08:51:13;98075.38;;;16.69;50.15
50125;BME280;36023;48.670;6.184;2023-03-13T08:53:41;98072.75;;;16.69;50.28
50125;BME280;36023;48.670;6.184;2023-03-13T08:56:10;98069.28;;;16.69;50.27
50125;BME280;36023;48.670;6.184;2023-03-13T08:58:37;98073.66;;;16.68;50.26
50125;BME280;36023;48.670;6.184;2023-03-13T09:01:23;98070.19;;;16.68;50.42
50125;BME280;36023;48.670;6.184;2023-03-13T09:03:49;98068.44;;;16.68;50.31
50125;BME280;36023;48.670;6.184;2023-03-13T09:06:16;98058.91;;;16.67;50.40
50125;BME280;36023;48.670;6.184;2023-03-13T09:08:42;98059.75;;;16.68;50.52
50125;BME280;36023;48.670;6.184;2023-03-13T09:11:11;98057.13;;;16.68;50.48
50125;BME280;36023;48.670;6.184;2023-03-13T09:13:40;98062.28;;;16.69;50.46
50125;BME280;36023;48.670;6.184;2023-03-13T09:16:09;98053.69;;;16.67;50.51
50125;BME280;36023;48.670;6.184;2023-03-13T09:18:35;98045.84;;;16.67;50.60
50125;BME280;36023;48.670;6.184;2023-03-13T09:21:04;98049.28;;;16.68;50.63
50125;BME280;36023;48.670;6.184;2023-03-13T09:23:30;98041.44;;;16.68;50.46
50125;BME280;36023;48.670;6.184;2023-03-13T09:25:56;98038.00;;;16.67;50.46
50125;BME280;36023;48.670;6.184;2023-03-13T09:28:23;98035.38;;;16.67;50.57
50125;BME280;36023;48.670;6.184;2023-03-13T09:30:50;98035.38;;;16.67;50.51
50125;BME280;36023;48.670;6.184;2023-03-13T09:33:17;98023.97;;;16.68;50.69
50125;BME280;36023;48.670;6.184;2023-03-13T09:35:43;98014.41;;;16.69;50.65
50125;BME280;36023;48.670;6.184;2023-03-13T09:38:19;98008.28;;;16.68;50.52
50125;BME280;36023;48.670;6.184;2023-03-13T09:40:48;98002.06;;;16.71;50.57
50125;BME280;36023;48.670;6.184;2023-03-13T09:43:38;97994.88;;;16.75;50.44
50125;BME280;36023;48.670;6.184;2023-03-13T09:46:10;98009.81;;;16.73;50.59
50125;BME280;36023;48.670;6.184;2023-03-13T09:48:50;97994.22;;;16.71;50.57
50125;BME280;36023;48.670;6.184;2023-03-13T09:51:22;97968.16;;;16.69;50.70
50125;BME280;36023;48.670;6.184;2023-03-13T09:56:19;97973.41;;;16.69;50.69
50125;BME280;36023;48.670;6.184;2023-03-13T09:58:53;97976.94;;;16.68;50.70
50125;BME280;36023;48.670;6.184;2023-03-13T10:01:23;97974.41;;;16.67;50.43
50125;BME280;36023;48.670;6.184;2023-03-13T10:06:41;97979.63;;;16.67;50.53
50125;BME280;36023;48.670;6.184;2023-03-13T10:09:29;97971.03;;;16.65;50.40
50125;BME280;36023;48.670;6.184;2023-03-13T10:12:03;97959.66;;;16.66;50.32
50125;BME280;36023;48.670;6.184;2023-03-13T10:23:04;97956.28;;;16.64;50.43
50125;BME280;36023;48.670;6.184;2023-03-13T10:25:34;97938.81;;;16.64;50.41
50125;BME280;36023;48.670;6.184;2023-03-13T10:28:01;97939.66;;;16.65;50.45
50125;BME280;36023;48.670;6.184;2023-03-13T10:30:32;97933.59;;;16.64;50.38
50125;BME280;36023;48.670;6.184;2023-03-13T10:33:18;97922.31;;;16.64;50.38
50125;BME280;36023;48.670;6.184;2023-03-13T10:35:44;97917.91;;;16.64;50.51
50125;BME280;36023;48.670;6.184;2023-03-13T10:38:16;97911.84;;;16.64;50.52
50125;BME280;36023;48.670;6.184;2023-03-13T10:40:42;97909.34;;;16.62;50.30
50125;BME280;36023;48.670;6.184;2023-03-13T10:43:19;97909.22;;;16.64;50.39
50125;BME280;36023;48.670;6.184;2023-03-13T10:45:45;97895.31;;;16.63;50.47
50125;BME280;36023;48.670;6.184;2023-03-13T10:48:24;97891.78;;;16.64;50.39
50125;BME280;36023;48.670;6.184;2023-03-13T10:50:53;97892.72;;;16.63;50.66
50125;BME280;36023;48.670;6.184;2023-03-13T10:53:32;97891.78;;;16.64;50.60
50125;BME280;36023;48.670;6.184;2023-03-13T10:58:40;97878.69;;;16.64;50.60
50125;BME280;36023;48.670;6.184;2023-03-13T11:01:38;97858.63;;;16.65;50.65
50125;BME280;36023;48.670;6.184;2023-03-13T11:04:27;97855.19;;;16.64;50.80
50125;BME280;36023;48.670;6.184;2023-03-13T11:07:00;97836.03;;;16.64;50.95
50125;BME280;36023;48.670;6.184;2023-03-13T11:09:28;97832.59;;;16.63;50.81
50125;BME280;36023;48.670;6.184;2023-03-13T11:12:00;97822.97;;;16.64;51.10
50125;BME280;36023;48.670;6.184;2023-03-13T11:14:26;97821.19;;;16.64;51.02
50125;BME280;36023;48.670;6.184;2023-03-13T11:22:33;97824.56;;;16.66;51.28
50125;BME280;36023;48.670;6.184;2023-03-13T11:28:15;97797.50;;;16.67;51.44
50125;BME280;36023;48.670;6.184;2023-03-13T11:33:24;97773.97;;;16.67;51.53
50125;BME280;36023;48.670;6.184;2023-03-13T11:35:58;97774.78;;;16.68;51.82
50125;BME280;36023;48.670;6.184;2023-03-13T11:39:01;97776.50;;;16.69;51.84
50125;BME280;36023;48.670;6.184;2023-03-13T11:44:18;97754.53;;;16.71;52.17
50125;BME280;36023;48.670;6.184;2023-03-13T11:50:04;97766.78;;;16.71;52.15
50125;BME280;36023;48.670;6.184;2023-03-13T12:01:18;97736.22;;;16.71;52.53
50125;BME280;36023;48.670;6.184;2023-03-13T12:04:00;97722.22;;;16.73;52.50
50125;BME280;36023;48.670;6.184;2023-03-13T12:06:34;97708.22;;;16.74;52.69
50125;BME280;36023;48.670;6.184;2023-03-13T12:09:28;97700.41;;;16.74;52.87
50125;BME280;36023;48.670;6.184;2023-03-13T12:15:05;97675.09;;;16.74;53.11
50125;BME280;36023;48.670;6.184;2023-03-13T12:17:45;97689.81;;;16.75;53.07
50125;BME280;36023;48.670;6.184;2023-03-13T12:25:51;97654.06;;;16.76;53.51
50125;BME280;36023;48.670;6.184;2023-03-13T12:31:20;97649.66;;;16.76;53.82
50125;BME280;36023;48.670;6.184;2023-03-13T12:41:46;97615.69;;;16.76;54.12
50125;BME280;36023;48.670;6.184;2023-03-13T12:44:18;97596.44;;;16.77;54.31
50125;BME280;36023;48.670;6.184;2023-03-13T12:47:25;97598.22;;;16.77;54.44
50125;BME280;36023;48.670;6.184;2023-03-13T12:53:37;97580.63;;;16.79;54.66
50125;BME280;36023;48.670;6.184;2023-03-13T12:56:14;97584.09;;;16.79;54.67
50125;BME280;36023;48.670;6.184;2023-03-13T12:58:53;97586.69;;;16.79;54.75
50125;BME280;36023;48.670;6.184;2023-03-13T13:01:29;97580.63;;;16.79;54.92
50125;BME280;36023;48.670;6.184;2023-03-13T13:03:59;97564.94;;;16.79;55.03
50125;BME280;36023;48.670;6.184;2023-03-13T13:06:48;97563.16;;;16.79;55.08
50125;BME280;36023;48.670;6.184;2023-03-13T13:09:20;97553.53;;;16.80;55.31
50125;BME280;36023;48.670;6.184;2023-03-13T13:11:48;97558.78;;;16.80;55.31
50125;BME280;36023;48.670;6.184;2023-03-13T13:24:59;97527.31;;;16.81;55.73
50125;BME280;36023;48.670;6.184;2023-03-13T13:29:58;97512.47;;;16.82;55.80
50125;BME280;36023;48.670;6.184;2023-03-13T13:35:29;97503.66;;;16.83;56.07
50125;BME280;36023;48.670;6.184;2023-03-13T13:43:38;97487.03;;;16.84;56.17
50125;BME280;36023;48.670;6.184;2023-03-13T13:46:26;97489.66;;;16.84;56.47
50125;BME280;36023;48.670;6.184;2023-03-13T13:51:31;97479.91;;;16.86;56.64
50125;BME280;36023;48.670;6.184;2023-03-13T13:54:30;97483.34;;;16.86;56.58
50125;BME280;36023;48.670;6.184;2023-03-13T13:57:09;97466.72;;;16.87;56.75
50125;BME280;36023;48.670;6.184;2023-03-13T13:59:42;97468.50;;;16.87;56.59
50125;BME280;36023;48.670;6.184;2023-03-13T14:02:14;97462.31;;;16.88;56.60
50125;BME280;36023;48.670;6.184;2023-03-13T14:12:51;97435.25;;;16.89;56.63
50125;BME280;36023;48.670;6.184;2023-03-13T14:15:23;97422.91;;;16.91;56.56
50125;BME280;36023;48.670;6.184;2023-03-13T14:21:01;97415.78;;;16.93;57.08
50125;BME280;36023;48.670;6.184;2023-03-13T14:26:13;97406.97;;;16.94;57.01
50125;BME280;36023;48.670;6.184;2023-03-13T14:29:03;97398.31;;;16.93;57.02
50125;BME280;36023;48.670;6.184;2023-03-13T14:31:34;97393.91;;;16.94;56.93
50125;BME280;36023;48.670;6.184;2023-03-13T14:34:03;97379.88;;;16.95;57.24
50125;BME280;36023;48.670;6.184;2023-03-13T14:36:29;97366.81;;;16.95;57.11
50125;BME280;36023;48.670;6.184;2023-03-13T14:38:59;97353.72;;;16.95;57.14
50125;BME280;36023;48.670;6.184;2023-03-13T14:41:32;97352.78;;;16.96;57.24
50125;BME280;36023;48.670;6.184;2023-03-13T14:44:15;97351.75;;;16.98;57.30
50125;BME280;36023;48.670;6.184;2023-03-13T14:46:43;97347.53;;;16.96;57.26
50125;BME280;36023;48.670;6.184;2023-03-13T14:49:15;97364.81;;;16.98;57.28
50125;BME280;36023;48.670;6.184;2023-03-13T14:51:42;97379.69;;;16.98;57.31
50125;BME280;36023;48.670;6.184;2023-03-13T14:57:12;97377.91;;;16.98;57.29
50125;BME280;36023;48.670;6.184;2023-03-13T14:59:38;97381.34;;;16.99;57.41
50125;BME280;36023;48.670;6.184;2023-03-13T15:02:14;97383.94;;;16.99;57.43
50125;BME280;36023;48.670;6.184;2023-03-13T15:05:28;97402.16;;;17.01;57.42
50125;BME280;36023;48.670;6.184;2023-03-13T15:07:53;97434.34;;;17.01;57.38
50125;BME280;36023;48.670;6.184;2023-03-13T15:10:19;97415.34;;;16.99;55.52
50125;BME280;36023;48.670;6.184;2023-03-13T15:12:45;97401.03;;;16.92;55.25
50125;BME280;36023;48.670;6.184;2023-03-13T15:15:11;97416.00;;;16.90;55.19
50125;BME280;36023;48.670;6.184;2023-03-13T15:17:37;97411.81;;;16.87;55.72
50125;BME280;36023;48.670;6.184;2023-03-13T15:20:03;97416.84;;;16.90;55.06
50125;BME280;36023;48.670;6.184;2023-03-13T15:22:36;97411.59;;;16.90;54.99
50125;BME280;36023;48.670;6.184;2023-03-13T15:25:21;97402.69;;;16.93;54.88
50125;BME280;36023;48.670;6.184;2023-03-13T15:27:47;97392.94;;;16.95;54.96